Time;durP1;ratioP1;P1;durP2;ratioP2;P2;SDS_P1;SDS_P2;PMS_P1;PMS_P2;Temp;Humidity;BMP_temperature;BMP_pressure;BME280_temperature;BME280_humidity;BME280_pressure;Samples;Min_cycle;Max_cycle;Signal;HPM_P1;HPM_P2
2021/12/05 00:19:36;;;;;;;143.80;135.67;;;6.00;99.90;;;;;;5067078;28;20293;-80
2021/12/05 00:24:23;;;;;;;142.77;134.90;;;6.00;99.90;;;;;;5072187;28;20214;-81
2021/12/05 00:26:57;;;;;;;133.50;126.10;;;6.00;99.90;;;;;;5071421;28;20177;-80
2021/12/05 00:34:59;;;;;;;132.30;124.70;;;6.00;99.90;;;;;;5070484;28;20198;-81
2021/12/05 00:48:27;;;;;;;136.90;129.03;;;5.90;99.90;;;;;;5066649;28;20187;-81
2021/12/05 00:56:44;;;;;;;138.50;130.27;;;6.00;99.90;;;;;;5071108;28;20231;-80
2021/12/05 01:04:57;;;;;;;135.17;127.60;;;5.90;99.90;;;;;;5064743;28;20266;-80
2021/12/05 01:10:16;;;;;;;135.70;127.47;;;6.00;99.90;;;;;;5070950;28;20197;-80
2021/12/05 01:15:16;;;;;;;138.10;130.37;;;6.00;99.90;;;;;;5070525;28;20233;-81
2021/12/05 01:20:21;;;;;;;136.47;128.57;;;6.00;99.90;;;;;;5065033;28;20223;-81
2021/12/05 01:22:57;;;;;;;134.97;127.83;;;5.90;99.90;;;;;;5071747;28;20301;-81
2021/12/05 01:25:34;;;;;;;134.23;126.70;;;5.80;99.90;;;;;;5056537;28;20288;-80
2021/12/05 01:28:22;;;;;;;132.47;124.73;;;5.80;99.90;;;;;;5039910;28;20197;-81
2021/12/05 01:31:07;;;;;;;135.60;128.23;;;5.80;99.90;;;;;;5063297;28;20258;-81
2021/12/05 01:33:44;;;;;;;130.93;124.13;;;5.80;99.90;;;;;;5064139;28;20213;-81
2021/12/05 01:36:28;;;;;;;135.77;127.67;;;5.80;99.90;;;;;;5069316;28;20325;-81
2021/12/05 01:50:07;;;;;;;153.40;144.93;;;5.60;99.90;;;;;;5054508;28;20212;-80
2021/12/05 02:39:09;;;;;;;544.63;498.83;;;5.10;99.90;;;;;;5068069;28;20212;-82
2021/12/05 02:41:38;;;;;;;558.03;510.70;;;5.10;99.90;;;;;;5054851;28;20193;-82
2021/12/05 02:44:26;;;;;;;557.10;509.57;;;5.00;99.90;;;;;;5062555;28;20658;-81
2021/12/05 02:47:01;;;;;;;561.13;514.07;;;5.00;99.90;;;;;;5062807;28;20196;-81
2021/12/05 02:49:29;;;;;;;561.70;514.33;;;5.00;99.90;;;;;;5067721;28;20194;-79
2021/12/05 02:52:02;;;;;;;562.80;515.40;;;5.00;99.90;;;;;;5051887;28;20241;-80
2021/12/05 02:54:36;;;;;;;569.30;521.07;;;5.00;99.90;;;;;;5063919;28;20182;-80
2021/12/05 02:57:04;;;;;;;569.73;521.40;;;5.00;99.90;;;;;;5083774;28;20188;-80
2021/12/05 03:02:07;;;;;;;574.00;525.50;;;5.00;99.90;;;;;;5062710;28;20219;-81
2021/12/05 03:04:36;;;;;;;575.63;526.87;;;5.00;99.90;;;;;;5070098;28;20186;-81
2021/12/05 03:07:06;;;;;;;577.67;529.20;;;5.00;99.90;;;;;;5061954;28;20192;-81
2021/12/05 03:09:32;;;;;;;583.03;533.97;;;5.00;99.90;;;;;;5068004;28;20266;-81
2021/12/05 03:11:58;;;;;;;587.07;538.10;;;5.00;99.90;;;;;;5049608;28;20193;-81
2021/12/05 03:14:24;;;;;;;591.20;541.73;;;5.00;99.90;;;;;;5061166;28;20185;-81
2021/12/05 03:16:50;;;;;;;586.70;537.40;;;5.10;99.90;;;;;;5051436;28;20188;-80
2021/12/05 03:19:18;;;;;;;594.70;545.17;;;5.00;99.90;;;;;;5051373;28;20267;-81
2021/12/05 03:21:46;;;;;;;598.23;548.80;;;5.00;99.90;;;;;;5066841;28;20258;-80
2021/12/05 03:24:13;;;;;;;591.93;542.03;;;5.00;99.90;;;;;;5068936;28;20291;-81
2021/12/05 03:26:42;;;;;;;603.17;553.13;;;5.00;99.90;;;;;;5066889;28;20196;-81
2021/12/05 03:29:10;;;;;;;607.27;557.07;;;5.00;99.90;;;;;;5066945;28;21283;-80
2021/12/05 03:31:37;;;;;;;609.27;558.67;;;5.00;99.90;;;;;;5062988;28;20186;-81
2021/12/05 03:34:05;;;;;;;609.80;559.53;;;5.10;99.90;;;;;;5026318;28;20304;-81
2021/12/05 03:36:31;;;;;;;611.40;561.10;;;5.10;99.90;;;;;;5061208;28;20262;-81
2021/12/05 03:38:57;;;;;;;606.87;556.70;;;5.10;99.90;;;;;;5051238;28;20239;-80
2021/12/05 03:41:23;;;;;;;615.90;565.07;;;5.10;99.90;;;;;;5051713;28;20201;-80
2021/12/05 03:43:54;;;;;;;613.97;563.57;;;5.10;99.90;;;;;;5060982;28;20628;-81
2021/12/05 03:46:21;;;;;;;611.07;560.67;;;5.10;99.90;;;;;;5049542;28;20665;-82
2021/12/05 03:48:51;;;;;;;614.23;563.83;;;5.10;99.90;;;;;;5060032;28;20197;-80
2021/12/05 03:51:21;;;;;;;611.87;561.57;;;5.00;99.90;;;;;;5059810;28;20230;-81
2021/12/05 03:53:48;;;;;;;611.77;561.13;;;5.00;99.90;;;;;;5060468;28;20256;-81
2021/12/05 03:56:14;;;;;;;613.63;563.07;;;5.00;99.90;;;;;;5060601;28;20201;-80
2021/12/05 03:58:40;;;;;;;616.90;566.40;;;4.90;99.90;;;;;;5062629;28;20290;-80
2021/12/05 04:01:09;;;;;;;617.13;566.53;;;4.90;99.90;;;;;;5066516;28;20318;-81
2021/12/05 04:03:36;;;;;;;615.17;564.67;;;4.90;99.90;;;;;;5066429;28;20210;-80
2021/12/05 04:06:04;;;;;;;621.90;571.50;;;4.90;99.90;;;;;;5061015;28;20197;-80
2021/12/05 04:08:31;;;;;;;617.13;566.50;;;4.80;99.90;;;;;;5050572;28;20354;-80
2021/12/05 04:11:01;;;;;;;613.57;563.17;;;4.80;99.90;;;;;;5068959;28;20181;-79
2021/12/05 04:13:28;;;;;;;619.07;567.80;;;4.80;99.90;;;;;;5062366;28;20190;-80
2021/12/05 04:15:55;;;;;;;623.60;572.27;;;4.80;99.90;;;;;;5070226;28;20201;-80
2021/12/05 04:18:21;;;;;;;623.90;572.47;;;4.80;99.90;;;;;;5046825;28;20198;-80
2021/12/05 04:20:50;;;;;;;632.30;580.40;;;4.90;99.90;;;;;;5063584;28;20716;-79
2021/12/05 04:23:17;;;;;;;628.97;577.00;;;4.90;99.90;;;;;;5065632;28;20415;-81
2021/12/05 04:25:43;;;;;;;625.03;573.33;;;5.00;99.90;;;;;;5064628;28;20611;-80
2021/12/05 04:28:09;;;;;;;643.97;591.27;;;5.00;99.90;;;;;;5054646;28;20193;-80
2021/12/05 04:30:36;;;;;;;635.03;582.77;;;5.00;99.90;;;;;;5065625;28;20281;-80
2021/12/05 04:33:02;;;;;;;633.70;581.57;;;5.00;99.90;;;;;;5051893;28;20243;-79
2021/12/05 04:35:28;;;;;;;633.57;581.27;;;5.00;99.90;;;;;;5053455;28;20289;-79
2021/12/05 04:37:54;;;;;;;637.77;585.27;;;5.00;99.90;;;;;;5063747;28;20296;-79
2021/12/05 04:40:19;;;;;;;633.17;581.17;;;5.00;99.90;;;;;;5052740;28;20198;-79
2021/12/05 04:42:45;;;;;;;638.20;585.73;;;5.00;99.90;;;;;;5068840;28;20209;-79
2021/12/05 04:45:18;;;;;;;634.33;582.00;;;5.00;99.90;;;;;;5064649;28;20181;-81
2021/12/05 04:47:44;;;;;;;632.20;579.97;;;5.00;99.90;;;;;;5064066;28;20182;-79
2021/12/05 04:50:11;;;;;;;636.60;584.00;;;4.90;99.90;;;;;;5051996;28;20205;-82
2021/12/05 04:52:37;;;;;;;631.27;578.90;;;4.90;99.90;;;;;;5061412;28;20238;-81
2021/12/05 04:55:05;;;;;;;642.83;590.07;;;4.90;99.90;;;;;;5069764;28;20190;-79
2021/12/05 04:57:31;;;;;;;639.57;586.87;;;4.90;99.90;;;;;;5063100;28;20197;-81
2021/12/05 04:59:57;;;;;;;642.53;590.00;;;4.90;99.90;;;;;;5052801;28;20194;-79
2021/12/05 05:02:24;;;;;;;647.03;594.37;;;4.90;99.90;;;;;;5034862;28;20205;-80
2021/12/05 05:04:50;;;;;;;649.17;596.67;;;4.90;99.90;;;;;;5062476;28;20225;-80
2021/12/05 05:07:27;;;;;;;646.40;594.13;;;4.90;99.90;;;;;;5031272;28;20223;-79
2021/12/05 05:10:17;;;;;;;647.03;594.40;;;4.90;99.90;;;;;;5065484;28;20182;-80
2021/12/05 05:12:42;;;;;;;645.60;593.10;;;4.90;99.90;;;;;;5064015;28;20670;-79
2021/12/05 05:15:10;;;;;;;652.27;599.77;;;4.90;99.90;;;;;;5035125;28;20202;-81
2021/12/05 05:17:37;;;;;;;650.33;598.03;;;4.90;99.90;;;;;;5062343;28;20211;-80
2021/12/05 05:20:12;;;;;;;656.50;603.83;;;4.90;99.90;;;;;;5029893;28;20247;-80
2021/12/05 05:49:19;;;;;;;542.00;499.37;;;5.10;99.90;;;;;;5053903;28;20721;-80
2021/12/05 05:51:45;;;;;;;547.90;504.20;;;5.00;99.90;;;;;;5067137;28;20174;-80
2021/12/05 05:54:11;;;;;;;541.27;498.23;;;5.10;99.90;;;;;;5070139;28;20205;-80
2021/12/05 05:56:39;;;;;;;534.77;492.00;;;5.10;99.90;;;;;;5068270;28;20196;-81
2021/12/05 05:59:13;;;;;;;525.50;483.83;;;5.10;99.90;;;;;;5064245;28;20212;-80
2021/12/05 06:01:58;;;;;;;521.87;480.37;;;5.10;99.90;;;;;;5066702;28;20204;-79
2021/12/05 06:04:24;;;;;;;509.43;469.23;;;5.10;99.90;;;;;;5061454;28;20217;-80
2021/12/05 06:06:50;;;;;;;501.13;461.53;;;5.20;99.90;;;;;;5068369;28;20197;-81
2021/12/05 06:09:15;;;;;;;496.40;457.23;;;5.20;99.90;;;;;;5043992;28;20243;-80
2021/12/05 06:11:41;;;;;;;489.03;449.97;;;5.20;99.90;;;;;;5067480;28;20258;-79
2021/12/05 06:14:07;;;;;;;483.47;445.43;;;5.20;99.90;;;;;;5051593;28;20263;-81
2021/12/05 06:16:32;;;;;;;489.47;452.47;;;5.20;99.90;;;;;;5051206;28;20631;-80
2021/12/05 06:18:58;;;;;;;471.67;435.60;;;5.20;99.90;;;;;;5068629;28;20693;-81
2021/12/05 06:21:24;;;;;;;466.47;430.53;;;5.10;99.90;;;;;;5051506;28;20193;-81
2021/12/05 06:23:49;;;;;;;464.77;429.13;;;5.10;99.90;;;;;;5050321;28;20229;-80
2021/12/05 06:26:21;;;;;;;463.50;427.73;;;5.10;99.90;;;;;;5060877;28;20191;-81
2021/12/05 06:28:59;;;;;;;465.43;429.83;;;5.20;99.90;;;;;;5068246;28;20182;-81
2021/12/05 06:37:29;;;;;;;450.10;416.07;;;5.00;99.90;;;;;;4996054;28;20377;-80
2021/12/05 06:40:19;;;;;;;451.17;416.80;;;4.90;99.90;;;;;;5063199;28;20843;-80
2021/12/05 06:47:57;;;;;;;448.30;414.73;;;4.90;99.90;;;;;;5067581;28;20271;-81
2021/12/05 06:50:23;;;;;;;446.50;412.53;;;4.90;99.90;;;;;;5050238;28;20194;-81
2021/12/05 06:52:48;;;;;;;445.50;411.50;;;4.90;99.90;;;;;;5076454;28;20240;-81
2021/12/05 06:55:16;;;;;;;442.80;409.00;;;5.00;99.90;;;;;;5050260;28;20195;-80
2021/12/05 06:57:42;;;;;;;451.27;416.73;;;5.00;99.90;;;;;;5075910;28;20607;-80
2021/12/05 07:00:13;;;;;;;445.10;411.17;;;5.00;99.90;;;;;;5050484;28;20194;-79
2021/12/05 07:02:39;;;;;;;450.17;416.03;;;4.90;99.90;;;;;;5058618;28;20701;-79
2021/12/05 07:07:37;;;;;;;455.47;420.70;;;4.90;99.90;;;;;;5083296;28;20196;-80
2021/12/05 07:10:06;;;;;;;456.43;421.70;;;4.90;99.90;;;;;;5044460;28;20190;-80
2021/12/05 07:15:11;;;;;;;450.83;416.27;;;4.90;99.90;;;;;;5068988;28;20192;-80
2021/12/05 07:20:33;;;;;;;452.47;418.10;;;4.90;99.90;;;;;;5063115;28;20224;-80
2021/12/05 07:25:44;;;;;;;459.07;424.40;;;4.80;99.90;;;;;;5068589;28;20729;-79
2021/12/05 07:42:04;;;;;;;501.17;461.37;;;4.50;99.90;;;;;;5062701;28;20201;-80
2021/12/05 07:44:31;;;;;;;500.53;460.63;;;4.50;99.90;;;;;;5067108;28;20293;-79
2021/12/05 07:46:57;;;;;;;499.00;459.43;;;4.50;99.90;;;;;;5064277;28;20197;-80
2021/12/05 07:49:23;;;;;;;495.00;455.93;;;4.50;99.90;;;;;;5071998;28;20723;-81
2021/12/05 07:51:50;;;;;;;493.20;454.30;;;4.50;99.90;;;;;;5055384;28;20190;-79
2021/12/05 07:55:07;;;;;;;496.23;457.30;;;4.50;99.90;;;;;;5053284;28;20224;-79
2021/12/05 08:16:10;;;;;;;462.40;428.50;;;4.60;99.90;;;;;;5061637;28;20197;-81
2021/12/05 08:18:37;;;;;;;454.93;421.83;;;4.60;99.90;;;;;;5037367;28;20738;-81
2021/12/05 08:21:05;;;;;;;465.60;431.97;;;4.60;99.90;;;;;;5063186;28;20719;-80
2021/12/05 08:23:31;;;;;;;456.23;422.47;;;4.50;99.90;;;;;;5063921;28;20206;-81
2021/12/05 08:26:10;;;;;;;464.90;430.30;;;4.50;99.90;;;;;;5069559;28;20186;-80
2021/12/05 08:32:16;;;;;;;456.67;422.97;;;4.50;99.90;;;;;;5066157;28;20848;-81
2021/12/05 08:39:55;;;;;;;466.00;431.07;;;4.50;99.90;;;;;;5069209;28;20195;-82
2021/12/05 09:20:56;;;;;;;401.03;373.27;;;4.90;99.90;;;;;;5064946;28;20336;-79
2021/12/05 09:26:33;;;;;;;394.97;368.03;;;4.90;99.90;;;;;;5036164;28;20316;-81
2021/12/05 10:10:37;;;;;;;331.50;311.53;;;5.00;99.90;;;;;;5060807;28;20196;-79
2021/12/05 10:15:53;;;;;;;327.90;307.93;;;4.90;99.90;;;;;;5062784;28;20185;-79
2021/12/05 10:38:41;;;;;;;246.03;232.23;;;5.50;99.90;;;;;;5064393;28;20197;-80
2021/12/05 10:43:43;;;;;;;232.53;219.43;;;5.40;99.90;;;;;;5061355;28;20237;-82
2021/12/05 10:46:12;;;;;;;220.10;207.60;;;5.30;99.90;;;;;;5064860;28;20192;-81
2021/12/05 10:48:42;;;;;;;209.00;196.90;;;5.40;99.90;;;;;;5061736;28;20221;-80
2021/12/05 10:51:12;;;;;;;205.07;193.47;;;5.50;99.90;;;;;;5061673;28;20192;-81
2021/12/05 10:53:45;;;;;;;204.90;193.73;;;5.60;99.90;;;;;;5061331;28;20237;-82
2021/12/05 10:56:30;;;;;;;194.77;183.83;;;5.60;99.90;;;;;;5062892;28;20280;-80
2021/12/05 10:59:00;;;;;;;193.73;183.03;;;5.60;99.90;;;;;;5075934;28;20193;-81
2021/12/05 11:01:49;;;;;;;191.27;180.87;;;5.60;99.90;;;;;;5059014;28;20197;-79
2021/12/05 11:04:21;;;;;;;178.60;168.57;;;5.60;99.90;;;;;;5051802;28;20942;-82
2021/12/05 11:06:59;;;;;;;172.33;162.40;;;5.70;99.90;;;;;;5059364;28;20672;-81
2021/12/05 11:09:28;;;;;;;167.50;157.90;;;5.80;99.90;;;;;;5081646;28;20248;-81
2021/12/05 11:12:01;;;;;;;164.80;155.70;;;6.00;99.90;;;;;;5083038;28;20200;-81
2021/12/05 11:14:35;;;;;;;158.50;149.90;;;6.20;99.90;;;;;;5060993;28;20189;-81
2021/12/05 11:17:05;;;;;;;155.33;147.03;;;6.30;99.90;;;;;;5067676;28;20723;-81
2021/12/05 11:19:38;;;;;;;147.93;139.93;;;6.30;99.90;;;;;;5068823;28;20271;-82
2021/12/05 11:22:21;;;;;;;141.67;134.17;;;6.50;99.90;;;;;;5061320;28;20589;-79
2021/12/05 11:24:54;;;;;;;143.80;136.10;;;6.70;99.90;;;;;;5063044;28;20564;-80
2021/12/05 11:27:28;;;;;;;146.60;139.10;;;6.70;99.90;;;;;;5076231;28;20665;-81
2021/12/05 11:30:13;;;;;;;139.40;131.97;;;6.80;99.90;;;;;;5060528;28;20715;-81
2021/12/05 11:32:54;;;;;;;135.50;128.60;;;6.80;99.90;;;;;;5059102;28;20189;-80
2021/12/05 11:35:34;;;;;;;137.57;130.63;;;6.80;99.90;;;;;;5074801;28;20205;-82
2021/12/05 11:38:05;;;;;;;132.17;125.57;;;6.80;99.90;;;;;;5061948;28;20245;-82
2021/12/05 11:40:42;;;;;;;126.00;119.70;;;6.80;99.90;;;;;;5060504;28;20197;-83
2021/12/05 11:43:15;;;;;;;130.80;124.10;;;6.80;99.90;;;;;;5060516;28;21112;-82
2021/12/05 11:46:08;;;;;;;135.60;128.80;;;6.60;99.90;;;;;;5061044;28;20178;-80
2021/12/05 11:48:48;;;;;;;138.07;131.27;;;6.60;99.90;;;;;;5059117;28;20185;-80
2021/12/05 11:51:44;;;;;;;140.17;133.17;;;6.50;99.90;;;;;;5065145;28;20185;-81
2021/12/05 11:54:22;;;;;;;137.37;130.57;;;6.50;99.90;;;;;;5037044;28;20264;-81
2021/12/05 11:56:50;;;;;;;130.03;123.33;;;6.60;99.90;;;;;;5062107;28;20201;-81
2021/12/05 11:59:22;;;;;;;135.00;128.00;;;6.70;99.90;;;;;;5060832;28;20182;-81
2021/12/05 12:02:02;;;;;;;134.63;127.93;;;6.70;99.90;;;;;;5077152;28;20519;-81
2021/12/05 12:04:49;;;;;;;131.10;124.50;;;6.70;99.90;;;;;;5060799;28;20209;-81
2021/12/05 12:07:35;;;;;;;127.77;121.27;;;6.90;99.90;;;;;;5062126;28;20223;-80
2021/12/05 12:10:18;;;;;;;129.23;122.77;;;6.80;99.90;;;;;;5059809;28;20626;-81
2021/12/05 12:12:50;;;;;;;129.73;122.93;;;6.70;99.90;;;;;;5062313;28;20182;-80
2021/12/05 12:15:17;;;;;;;126.57;119.90;;;6.70;99.90;;;;;;5043741;28;20181;-83
2021/12/05 12:17:44;;;;;;;126.83;120.33;;;6.80;99.90;;;;;;5062114;28;20185;-81
2021/12/05 12:20:16;;;;;;;123.97;117.57;;;6.90;99.90;;;;;;5050630;28;20225;-81
2021/12/05 12:22:42;;;;;;;122.50;115.90;;;7.00;99.90;;;;;;5062081;28;20186;-82
2021/12/05 12:25:13;;;;;;;119.53;113.23;;;7.10;99.90;;;;;;5033649;28;20182;-81
2021/12/05 12:27:42;;;;;;;115.80;109.07;;;7.20;99.90;;;;;;5065422;28;20776;-80
2021/12/05 12:30:10;;;;;;;110.53;104.53;;;7.30;99.90;;;;;;5063423;28;20276;-81
2021/12/05 12:32:42;;;;;;;108.27;102.37;;;7.40;99.90;;;;;;5036339;28;20189;-79
2021/12/05 12:35:11;;;;;;;108.30;102.17;;;7.40;99.90;;;;;;5062106;28;20288;-81
2021/12/05 12:37:55;;;;;;;109.87;103.53;;;7.40;99.90;;;;;;5063268;28;20206;-81
2021/12/05 12:40:47;;;;;;;108.97;103.03;;;7.30;99.90;;;;;;5063644;28;20193;-82
2021/12/05 12:43:34;;;;;;;109.47;103.67;;;7.30;99.90;;;;;;5062625;28;20246;-81
2021/12/05 12:46:20;;;;;;;111.77;105.27;;;7.20;99.90;;;;;;5063412;28;20179;-82
2021/12/05 12:48:48;;;;;;;107.90;102.10;;;7.20;99.90;;;;;;5087845;28;20197;-82
2021/12/05 12:51:27;;;;;;;109.47;103.30;;;7.20;99.90;;;;;;5048256;28;20192;-82
2021/12/05 12:54:01;;;;;;;110.97;104.47;;;7.10;99.90;;;;;;5071484;28;20278;-81
2021/12/05 12:56:27;;;;;;;109.67;103.10;;;7.10;99.90;;;;;;5067748;28;20198;-82
2021/12/05 12:59:00;;;;;;;115.07;108.37;;;7.20;99.90;;;;;;5053797;28;20185;-81
2021/12/05 13:10:05;;;;;;;114.80;108.20;;;7.30;99.90;;;;;;5064823;28;20247;-81
2021/12/05 13:12:33;;;;;;;111.70;105.13;;;7.30;99.90;;;;;;5062323;28;20735;-80
2021/12/05 13:15:17;;;;;;;111.73;104.97;;;7.30;99.90;;;;;;5065164;28;20211;-81
2021/12/05 13:17:48;;;;;;;110.73;104.03;;;7.30;99.90;;;;;;5069898;28;20193;-81
2021/12/05 13:20:18;;;;;;;112.90;106.10;;;7.30;99.90;;;;;;5069842;28;20225;-81
2021/12/05 13:23:06;;;;;;;113.13;106.03;;;7.40;99.90;;;;;;5065172;28;20193;-80
2021/12/05 13:25:53;;;;;;;111.47;104.33;;;7.40;99.90;;;;;;5063710;28;20181;-81
2021/12/05 13:28:36;;;;;;;110.90;103.40;;;7.50;99.90;;;;;;5062659;28;20190;-81
2021/12/05 13:31:28;;;;;;;112.17;104.17;;;7.50;99.90;;;;;;5069252;28;20182;-82
2021/12/05 13:34:21;;;;;;;113.83;106.13;;;7.60;99.90;;;;;;5064660;28;20213;-80
2021/12/05 13:37:05;;;;;;;113.97;106.50;;;7.60;99.90;;;;;;5069996;28;20263;-80
2021/12/05 13:39:39;;;;;;;113.10;105.30;;;7.70;99.90;;;;;;5064247;28;21080;-81
2021/12/05 13:42:22;;;;;;;116.33;108.50;;;7.60;99.90;;;;;;5069692;28;20189;-82
2021/12/05 13:45:00;;;;;;;113.23;105.93;;;7.70;99.90;;;;;;5064011;28;20212;-81
2021/12/05 13:47:43;;;;;;;107.77;100.43;;;7.60;99.90;;;;;;5061683;28;20603;-82
2021/12/05 13:50:28;;;;;;;110.93;103.40;;;7.60;99.90;;;;;;5067734;28;20201;-81
2021/12/05 13:52:56;;;;;;;111.73;103.90;;;7.50;99.90;;;;;;5068172;28;20234;-82
2021/12/05 13:55:41;;;;;;;112.83;105.10;;;7.50;99.90;;;;;;5064133;28;20194;-81
2021/12/05 13:58:53;;;;;;;117.03;109.13;;;7.60;99.90;;;;;;5069818;28;20194;-82
2021/12/05 14:01:29;;;;;;;111.60;104.03;;;7.60;99.90;;;;;;5063209;28;20718;-82
2021/12/05 14:04:10;;;;;;;113.70;105.63;;;7.60;99.90;;;;;;5063024;28;20300;-82
2021/12/05 14:06:42;;;;;;;116.23;108.10;;;7.60;99.90;;;;;;5062635;28;20198;-81
2021/12/05 14:09:19;;;;;;;122.00;113.27;;;7.50;99.90;;;;;;5069128;28;20200;-80
2021/12/05 14:11:55;;;;;;;118.07;110.07;;;7.50;99.90;;;;;;5061110;28;20185;-81
2021/12/05 14:14:44;;;;;;;117.73;109.97;;;7.60;99.90;;;;;;5062518;28;20197;-81
2021/12/05 14:17:17;;;;;;;118.27;110.33;;;7.50;99.90;;;;;;5054787;28;20208;-82
2021/12/05 14:19:46;;;;;;;117.77;109.57;;;7.50;99.90;;;;;;5068300;28;20666;-81
2021/12/05 14:22:15;;;;;;;111.20;103.70;;;7.50;99.90;;;;;;5063710;28;20235;-81
2021/12/05 14:24:45;;;;;;;113.23;105.73;;;7.50;99.90;;;;;;5069333;28;20302;-81
2021/12/05 14:27:15;;;;;;;115.83;107.97;;;7.40;99.90;;;;;;5069588;28;20711;-82
2021/12/05 14:29:43;;;;;;;114.87;107.20;;;7.40;99.90;;;;;;5059654;28;20596;-81
2021/12/05 14:32:15;;;;;;;117.00;109.07;;;7.40;99.90;;;;;;5061603;28;20771;-81
2021/12/05 14:34:42;;;;;;;121.37;113.40;;;7.30;99.90;;;;;;5067554;28;20201;-81
2021/12/05 14:37:15;;;;;;;120.73;112.67;;;7.30;99.90;;;;;;5068551;28;20228;-81
2021/12/05 14:39:50;;;;;;;121.73;113.83;;;7.20;99.90;;;;;;5062658;28;20177;-81
2021/12/05 14:42:22;;;;;;;127.33;118.87;;;7.20;99.90;;;;;;5068334;28;20177;-81
2021/12/05 14:44:52;;;;;;;125.43;117.40;;;7.10;99.90;;;;;;5064715;28;20240;-80
2021/12/05 14:47:21;;;;;;;128.17;119.63;;;7.10;99.90;;;;;;5053022;28;20527;-81
2021/12/05 14:49:53;;;;;;;130.60;121.50;;;7.10;99.90;;;;;;5061536;28;20194;-81
2021/12/05 14:52:23;;;;;;;126.77;118.47;;;7.00;99.90;;;;;;5062137;28;20185;-80
2021/12/05 14:54:49;;;;;;;132.30;123.27;;;7.00;99.90;;;;;;5085717;28;20367;-82
2021/12/05 14:57:19;;;;;;;132.73;123.57;;;6.90;99.90;;;;;;5061839;28;20178;-80
2021/12/05 14:59:47;;;;;;;132.53;123.83;;;6.90;99.90;;;;;;5061806;28;20726;-82
2021/12/05 15:02:15;;;;;;;127.93;119.53;;;6.90;99.90;;;;;;5062607;28;20192;-81
2021/12/05 15:04:47;;;;;;;135.17;126.27;;;6.90;99.90;;;;;;5051313;28;20385;-80
2021/12/05 15:07:13;;;;;;;133.40;124.37;;;6.90;99.90;;;;;;5063225;28;20261;-82
2021/12/05 15:09:46;;;;;;;136.10;126.90;;;6.90;99.90;;;;;;5063710;28;20280;-81
2021/12/05 15:12:19;;;;;;;136.70;127.47;;;6.90;99.90;;;;;;5060554;28;20229;-81
2021/12/05 15:14:48;;;;;;;130.37;121.73;;;6.90;99.90;;;;;;5063016;28;20174;-79
2021/12/05 15:17:17;;;;;;;137.77;128.60;;;6.90;99.90;;;;;;5059976;28;20196;-80
2021/12/05 15:19:46;;;;;;;132.53;123.63;;;6.90;99.90;;;;;;5059502;28;20227;-80
2021/12/05 15:22:14;;;;;;;129.17;121.03;;;6.90;99.90;;;;;;5067503;28;20200;-80
2021/12/05 15:24:41;;;;;;;130.73;123.03;;;6.90;99.90;;;;;;5061385;28;20263;-81
2021/12/05 15:27:14;;;;;;;130.87;122.60;;;6.90;99.90;;;;;;5042411;28;20665;-82
2021/12/05 15:29:49;;;;;;;138.10;129.13;;;6.90;99.90;;;;;;5062405;28;20182;-80
2021/12/05 15:32:21;;;;;;;136.87;128.33;;;6.90;99.90;;;;;;5051021;28;20185;-80
2021/12/05 15:34:59;;;;;;;137.33;129.07;;;6.90;99.90;;;;;;5061843;28;20285;-80
2021/12/05 15:37:26;;;;;;;141.10;132.30;;;6.80;99.90;;;;;;5068163;28;20775;-81
2021/12/05 15:39:54;;;;;;;141.33;132.97;;;6.80;99.90;;;;;;5061898;28;20198;-80
2021/12/05 15:42:23;;;;;;;143.60;134.90;;;6.80;99.90;;;;;;5045686;28;20185;-80
2021/12/05 15:44:52;;;;;;;140.60;131.77;;;6.80;99.90;;;;;;5062475;28;20219;-82
2021/12/05 15:47:22;;;;;;;147.20;138.20;;;6.70;99.90;;;;;;5060567;28;20186;-82
2021/12/05 15:49:53;;;;;;;145.77;137.10;;;6.60;99.90;;;;;;5060070;28;20214;-81
2021/12/05 15:52:49;;;;;;;148.47;139.53;;;6.60;99.90;;;;;;5058903;28;20186;-80
2021/12/05 15:55:24;;;;;;;154.07;144.97;;;6.50;99.90;;;;;;5059801;28;20312;-81
2021/12/05 15:57:59;;;;;;;156.97;147.63;;;6.50;99.90;;;;;;5065566;28;20217;-82
2021/12/05 16:00:31;;;;;;;158.20;148.87;;;6.40;99.90;;;;;;5062893;28;20173;-81
2021/12/05 16:03:27;;;;;;;156.30;146.70;;;6.40;99.90;;;;;;5061037;28;20194;-83
2021/12/05 16:06:00;;;;;;;159.47;150.03;;;6.40;99.90;;;;;;5059540;28;20182;-80
2021/12/05 16:08:30;;;;;;;161.63;151.43;;;6.40;99.90;;;;;;5066644;28;20212;-80
2021/12/05 16:11:00;;;;;;;162.50;152.50;;;6.40;99.90;;;;;;5063690;28;20665;-80
2021/12/05 16:13:34;;;;;;;155.50;145.90;;;6.40;99.90;;;;;;5054200;28;20216;-81
2021/12/05 16:16:24;;;;;;;154.60;145.20;;;6.40;99.90;;;;;;5065549;28;20524;-82
2021/12/05 16:18:53;;;;;;;158.07;148.23;;;6.50;99.90;;;;;;5064000;28;20617;-80
2021/12/05 16:21:28;;;;;;;181.27;170.43;;;6.50;99.90;;;;;;5064439;28;20285;-81
2021/12/05 16:24:08;;;;;;;210.77;198.37;;;6.50;99.90;;;;;;5086546;28;20208;-82
2021/12/05 16:26:34;;;;;;;228.13;214.60;;;6.50;99.90;;;;;;5085737;28;20185;-81
2021/12/05 16:29:24;;;;;;;239.60;225.87;;;6.50;99.90;;;;;;5054364;28;20194;-82
2021/12/05 16:31:55;;;;;;;246.70;231.80;;;6.60;99.90;;;;;;5047036;28;20186;-81
2021/12/05 16:34:32;;;;;;;254.17;239.63;;;6.60;99.90;;;;;;5063734;28;20224;-81
2021/12/05 16:37:04;;;;;;;257.13;242.07;;;6.60;99.90;;;;;;5064665;28;20197;-82
2021/12/05 16:39:52;;;;;;;265.73;250.40;;;6.60;99.90;;;;;;5062651;28;20216;-82
2021/12/05 16:42:21;;;;;;;260.50;245.60;;;6.60;99.90;;;;;;5062970;28;20681;-81
2021/12/05 16:44:56;;;;;;;264.77;249.73;;;6.50;99.90;;;;;;5063895;28;20201;-79
2021/12/05 16:47:32;;;;;;;267.93;252.67;;;6.50;99.90;;;;;;5086431;28;20181;-82
2021/12/05 16:50:01;;;;;;;266.00;250.77;;;6.40;99.90;;;;;;5068947;28;20674;-81
2021/12/05 16:52:36;;;;;;;264.10;248.87;;;6.30;99.90;;;;;;5063329;28;20248;-81
2021/12/05 16:55:25;;;;;;;261.30;246.20;;;6.30;99.90;;;;;;5064217;28;20215;-82
2021/12/05 17:00:51;;;;;;;263.17;247.93;;;6.30;99.90;;;;;;5061155;28;20737;-82
2021/12/05 17:03:23;;;;;;;258.37;243.40;;;6.30;99.90;;;;;;5064687;28;20201;-82
2021/12/05 17:05:53;;;;;;;245.70;231.80;;;6.30;99.90;;;;;;5070721;28;20220;-81
2021/12/05 17:08:24;;;;;;;245.93;231.93;;;6.40;99.90;;;;;;5052821;28;20190;-82
2021/12/05 17:11:04;;;;;;;239.53;225.67;;;6.40;99.90;;;;;;5070968;28;20308;-82
2021/12/05 17:13:56;;;;;;;228.63;215.60;;;6.40;99.90;;;;;;5069565;28;20181;-82
2021/12/05 17:16:27;;;;;;;224.93;211.60;;;6.40;99.90;;;;;;5070890;28;20620;-81
2021/12/05 17:19:02;;;;;;;217.37;204.97;;;6.30;99.90;;;;;;5065693;28;20274;-82
2021/12/05 17:21:39;;;;;;;207.77;195.97;;;6.40;99.90;;;;;;5066782;28;20231;-81
2021/12/05 17:24:21;;;;;;;212.70;200.60;;;6.40;99.90;;;;;;5066780;28;20202;-82
2021/12/05 17:26:54;;;;;;;207.20;195.50;;;6.40;99.90;;;;;;5087006;28;20215;-83
2021/12/05 17:29:26;;;;;;;202.93;191.27;;;6.50;99.90;;;;;;5064439;28;20235;-82
2021/12/05 17:32:15;;;;;;;200.57;189.03;;;6.50;99.90;;;;;;5064042;28;20257;-81
2021/12/05 17:34:46;;;;;;;197.00;185.70;;;6.50;99.90;;;;;;5062418;28;20206;-82
2021/12/05 17:37:25;;;;;;;191.93;180.90;;;6.50;99.90;;;;;;5064376;28;20236;-83
2021/12/05 17:40:06;;;;;;;185.77;174.97;;;6.50;99.90;;;;;;5069953;28;20196;-82
2021/12/05 17:42:32;;;;;;;183.07;172.63;;;6.50;99.90;;;;;;5069179;28;20189;-82
2021/12/05 17:45:01;;;;;;;171.70;161.83;;;6.50;99.90;;;;;;5053210;28;20228;-82
2021/12/05 17:47:34;;;;;;;169.07;159.07;;;6.50;99.90;;;;;;5063090;28;20178;-82
2021/12/05 17:50:06;;;;;;;172.60;162.87;;;6.50;99.90;;;;;;5067442;28;20198;-82
2021/12/05 17:52:33;;;;;;;165.90;156.10;;;6.50;99.90;;;;;;5065055;28;20225;-82
2021/12/05 17:55:13;;;;;;;162.03;152.63;;;6.40;99.90;;;;;;5052229;28;20213;-83
2021/12/05 17:57:43;;;;;;;163.40;153.97;;;6.40;99.90;;;;;;5086337;28;20185;-83
2021/12/05 18:00:15;;;;;;;164.90;155.50;;;6.40;99.90;;;;;;5051856;28;20235;-82
2021/12/05 18:02:45;;;;;;;161.20;152.20;;;6.40;99.90;;;;;;5063128;28;20235;-81
2021/12/05 18:05:16;;;;;;;159.57;150.23;;;6.40;99.90;;;;;;5052586;28;20296;-81
2021/12/05 18:07:42;;;;;;;159.90;150.70;;;6.40;99.90;;;;;;5066878;28;20240;-81
2021/12/05 18:10:11;;;;;;;165.87;156.17;;;6.40;99.90;;;;;;5063370;28;20208;-81
2021/12/05 18:12:37;;;;;;;155.50;146.30;;;6.40;99.90;;;;;;5062993;28;20272;-82